createdAt,value
2023-03-26T00:01:58.520Z,1.20
2023-03-26T00:05:01.100Z,1.20
2023-03-26T00:08:03.945Z,1.17
2023-03-26T00:11:08.707Z,1.10
2023-03-26T00:14:14.078Z,1.25
2023-03-26T00:17:16.827Z,1.00
2023-03-26T00:20:19.392Z,1.10
2023-03-26T00:23:22.218Z,1.20
2023-03-26T00:26:24.670Z,1.10
2023-03-26T00:29:28.145Z,1.02
2023-03-26T00:32:31.489Z,1.40
2023-03-26T00:35:38.416Z,1.15
2023-03-26T00:38:43.014Z,1.30
2023-03-26T00:41:45.860Z,1.00
2023-03-26T00:44:51.185Z,1.13
2023-03-26T00:47:53.750Z,0.90
2023-03-26T00:50:57.593Z,1.10
2023-03-26T00:54:00.785Z,1.17
2023-03-26T00:57:06.964Z,1.02
2023-03-26T01:00:15.388Z,1.15
2023-03-26T01:03:27.784Z,1.25
2023-03-26T01:06:36.011Z,1.30
2023-03-26T01:09:50.474Z,1.30
2023-03-26T01:12:53.103Z,1.10
2023-03-26T01:15:57.914Z,1.08
2023-03-26T01:19:00.917Z,1.35
2023-03-26T01:22:05.184Z,1.10
2023-03-26T01:25:09.649Z,1.30
2023-03-26T01:28:12.890Z,1.40
2023-03-26T01:31:38.744Z,1.38
2023-03-26T01:35:00.114Z,1.20
2023-03-26T01:38:10.912Z,1.50
2023-03-26T01:44:59.604Z,1.38
2023-03-26T01:48:02.451Z,1.70
2023-03-26T01:51:06.571Z,1.33
2023-03-26T01:54:31.544Z,1.30
2023-03-26T01:57:43.196Z,1.45
2023-03-26T02:01:24.677Z,1.08
2023-03-26T02:04:43.282Z,1.20
2023-03-26T02:08:12.271Z,1.25
2023-03-26T02:11:16.661Z,1.02
2023-03-26T02:14:19.441Z,1.10
2023-03-26T02:17:24.524Z,1.30
2023-03-26T02:23:35.955Z,1.23
2023-03-26T02:26:38.985Z,1.20
2023-03-26T02:29:47.797Z,1.20
2023-03-26T02:32:52.331Z,1.20
2023-03-26T02:36:02.699Z,1.20
2023-03-26T02:39:05.513Z,1.30
2023-03-26T02:42:12.703Z,1.42
2023-03-26T02:45:22.214Z,1.10
2023-03-26T02:48:44.055Z,1.48
2023-03-26T02:51:56.391Z,1.20
2023-03-26T02:55:02.391Z,1.40
2023-03-26T02:58:05.090Z,1.20
2023-03-26T03:01:11.912Z,1.33
2023-03-26T03:04:25.498Z,1.10
2023-03-26T03:07:29.216Z,1.20
2023-03-26T03:10:32.941Z,1.02
2023-03-26T03:13:56.634Z,1.30
2023-03-26T03:17:01.928Z,1.30
2023-03-26T03:20:07.394Z,1.50
2023-03-26T03:23:11.356Z,1.10
2023-03-26T03:26:16.669Z,1.05
2023-03-26T03:29:25.240Z,1.30
2023-03-26T03:32:28.094Z,1.20
2023-03-26T03:35:35.642Z,1.20
2023-03-26T03:38:39.643Z,1.20
2023-03-26T03:41:42.338Z,1.02
2023-03-26T03:44:49.403Z,1.05
2023-03-26T03:48:10.504Z,1.20
2023-03-26T03:51:18.483Z,1.17
2023-03-26T03:54:31.344Z,1.33
2023-03-26T03:58:03.833Z,1.58
2023-03-26T04:01:07.480Z,1.20
2023-03-26T04:04:25.848Z,1.80
2023-03-26T04:07:48.741Z,1.60
2023-03-26T04:11:13.455Z,1.80
2023-03-26T04:14:39.467Z,1.60
2023-03-26T04:17:49.119Z,1.70
2023-03-26T04:20:55.706Z,2.05
2023-03-26T04:24:02.765Z,2.03
2023-03-26T04:27:28.390Z,1.55
2023-03-26T04:30:42.703Z,1.92
2023-03-26T04:34:13.735Z,1.67
2023-03-26T04:37:34.666Z,1.50
2023-03-26T04:40:49.635Z,2.15
2023-03-26T04:44:17.154Z,1.80
2023-03-26T04:47:29.461Z,2.20
2023-03-26T04:50:32.004Z,1.60
2023-03-26T04:53:35.979Z,2.10
2023-03-26T04:56:54.394Z,1.70
2023-03-26T05:00:16.645Z,1.77
2023-03-26T05:03:22.588Z,1.73
2023-03-26T05:06:28.072Z,1.70
2023-03-26T05:09:31.887Z,1.67
2023-03-26T05:12:49.598Z,1.80
2023-03-26T05:15:56.716Z,1.90
2023-03-26T05:19:15.097Z,1.95
2023-03-26T05:22:18.816Z,1.70
2023-03-26T05:25:44.654Z,1.85
2023-03-26T05:28:57.090Z,1.92
2023-03-26T05:32:04.679Z,1.63
2023-03-26T05:35:07.703Z,1.60
2023-03-26T05:38:10.940Z,1.80
2023-03-26T05:41:13.768Z,1.70
2023-03-26T05:44:19.586Z,1.52
2023-03-26T05:47:22.453Z,2.08
2023-03-26T05:50:25.530Z,1.90
2023-03-26T05:53:33.848Z,1.77
2023-03-26T05:56:55.032Z,1.60
2023-03-26T06:00:16.470Z,2.13
2023-03-26T06:03:23.134Z,1.83
2023-03-26T06:06:46.322Z,1.60
2023-03-26T06:09:49.239Z,1.85
2023-03-26T06:12:51.877Z,1.90
2023-03-26T06:15:55.371Z,1.70
2023-03-26T06:19:20.886Z,1.95
2023-03-26T06:22:44.062Z,1.60
2023-03-26T06:25:56.448Z,1.85
2023-03-26T06:29:25.379Z,2.20
2023-03-26T06:32:46.356Z,1.80
2023-03-26T06:35:54.241Z,1.80
2023-03-26T06:38:58.267Z,1.80
2023-03-26T06:42:01.510Z,2.15
2023-03-26T06:45:23.491Z,2.00
2023-03-26T06:48:49.470Z,1.90
2023-03-26T06:52:11.046Z,1.95
2023-03-26T06:55:19.939Z,1.77
2023-03-26T06:58:38.750Z,1.70
2023-03-26T07:02:00.870Z,1.50
2023-03-26T07:05:22.668Z,1.70
2023-03-26T07:08:44.068Z,1.50
2023-03-26T07:12:12.869Z,1.60
2023-03-26T07:15:24.218Z,1.60
2023-03-26T07:18:45.528Z,1.58
2023-03-26T07:21:54.231Z,1.70
2023-03-26T07:25:20.608Z,1.38
2023-03-26T07:29:04.007Z,1.35
2023-03-26T07:32:38.422Z,2.10
2023-03-26T07:36:08.466Z,2.40
2023-03-26T07:39:42.392Z,2.35
2023-03-26T07:43:01.975Z,2.30
2023-03-26T07:46:29.472Z,1.95
2023-03-26T07:49:58.039Z,1.92
2023-03-26T07:53:20.876Z,2.50
2023-03-26T07:56:41.419Z,2.00
2023-03-26T08:00:14.315Z,1.90
2023-03-26T08:03:54.765Z,2.13
2023-03-26T08:08:06.694Z,2.10
2023-03-26T08:11:30.202Z,1.70
2023-03-26T08:14:50.277Z,1.80
2023-03-26T08:17:57.228Z,1.98
2023-03-26T08:21:08.114Z,1.80
2023-03-26T08:24:22.956Z,1.52
2023-03-26T08:27:44.191Z,1.65
2023-03-26T08:30:47.230Z,1.92
2023-03-26T08:33:50.249Z,1.60
2023-03-26T08:36:52.798Z,1.48
2023-03-26T08:39:55.810Z,1.80
2023-03-26T08:43:29.085Z,1.60
2023-03-26T08:46:54.136Z,1.90
2023-03-26T08:50:12.585Z,1.90
2023-03-26T08:53:18.805Z,1.80
2023-03-26T08:56:44.725Z,2.13
2023-03-26T09:00:20.155Z,1.75
2023-03-26T09:03:49.238Z,1.73
2023-03-26T09:10:37.413Z,1.60
2023-03-26T09:14:14.047Z,1.90
2023-03-26T09:17:35.167Z,1.60
2023-03-26T09:21:10.948Z,1.60
2023-03-26T09:24:19.197Z,1.67
2023-03-26T09:27:24.565Z,1.75
2023-03-26T09:30:42.989Z,1.90
2023-03-26T09:34:08.623Z,1.63
2023-03-26T09:37:57.499Z,1.50
2023-03-26T09:41:14.204Z,1.60
2023-03-26T09:44:41.039Z,1.70
2023-03-26T09:48:05.713Z,1.80
2023-03-26T09:51:31.273Z,1.60
2023-03-26T09:54:55.309Z,1.60
2023-03-26T09:58:34.846Z,1.50
2023-03-26T10:01:50.888Z,2.00
2023-03-26T10:05:15.632Z,1.60
2023-03-26T10:08:47.604Z,1.60
2023-03-26T10:11:50.722Z,1.40
2023-03-26T10:15:21.331Z,1.50
2023-03-26T10:18:29.997Z,1.30
2023-03-26T10:21:38.811Z,1.80
2023-03-26T10:25:00.555Z,1.50
2023-03-26T10:28:13.523Z,1.45
2023-03-26T10:31:34.914Z,1.50
2023-03-26T10:34:48.420Z,1.88
2023-03-26T10:38:10.328Z,1.50
2023-03-26T10:41:18.637Z,1.70
2023-03-26T10:44:43.405Z,1.35
2023-03-26T10:47:51.978Z,1.58
2023-03-26T10:51:19.570Z,1.55
2023-03-26T10:54:32.628Z,1.75
2023-03-26T10:57:41.568Z,1.63
2023-03-26T11:00:56.222Z,1.52
2023-03-26T11:04:14.698Z,1.48
2023-03-26T11:07:25.580Z,1.65
2023-03-26T11:10:37.781Z,1.60
2023-03-26T11:13:55.349Z,1.40
2023-03-26T11:17:40.900Z,2.40
2023-03-26T11:20:51.046Z,1.88
2023-03-26T11:24:11.849Z,1.80
2023-03-26T11:27:36.414Z,1.70
2023-03-26T11:30:59.879Z,1.70
2023-03-26T11:34:10.409Z,1.70
2023-03-26T11:37:24.403Z,1.70
2023-03-26T11:40:37.008Z,2.10
2023-03-26T11:43:39.926Z,1.98
2023-03-26T11:46:45.887Z,1.65
2023-03-26T11:49:52.526Z,1.77
2023-03-26T11:53:03.392Z,1.70
2023-03-26T11:56:15.147Z,1.70
2023-03-26T11:59:21.778Z,1.65
2023-03-26T12:02:45.808Z,1.80
2023-03-26T12:05:58.330Z,1.60
2023-03-26T12:09:01.558Z,1.80
2023-03-26T12:12:06.279Z,1.60
2023-03-26T12:15:19.236Z,1.60
2023-03-26T12:18:28.052Z,1.60
2023-03-26T12:21:30.738Z,1.60
2023-03-26T12:24:36.097Z,1.60
2023-03-26T12:27:48.585Z,1.55
2023-03-26T12:30:59.098Z,1.40
2023-03-26T12:34:14.017Z,1.50
2023-03-26T12:37:44.611Z,1.67
2023-03-26T12:40:48.091Z,2.10
2023-03-26T12:44:53.798Z,1.70
2023-03-26T12:47:59.506Z,1.70
2023-03-26T12:51:01.972Z,1.80
2023-03-26T12:54:15.590Z,1.60
2023-03-26T12:57:22.756Z,1.60
2023-03-26T13:00:35.145Z,1.40
2023-03-26T13:04:07.215Z,1.50
2023-03-26T13:07:37.876Z,1.67
2023-03-26T13:14:39.821Z,1.20
2023-03-26T13:18:14.898Z,1.42
2023-03-26T13:21:34.652Z,1.55
2023-03-26T13:25:09.792Z,1.60
2023-03-26T13:28:31.663Z,1.33
2023-03-26T13:32:09.378Z,1.30
2023-03-26T13:35:36.942Z,1.20
2023-03-26T13:39:05.126Z,1.50
2023-03-26T13:42:59.195Z,1.40
2023-03-26T13:46:05.707Z,1.15
2023-03-26T13:49:16.692Z,1.35
2023-03-26T13:55:30.439Z,1.30
2023-03-26T13:58:43.263Z,1.20
2023-03-26T14:02:02.299Z,1.35
2023-03-26T14:05:17.556Z,1.17
2023-03-26T14:08:27.974Z,1.20
2023-03-26T14:11:49.038Z,1.30
2023-03-26T14:15:33.395Z,1.90
2023-03-26T14:19:05.026Z,1.10
2023-03-26T14:22:37.549Z,1.13
2023-03-26T14:25:54.641Z,1.00
2023-03-26T14:29:24.523Z,1.20
2023-03-26T14:32:59.263Z,1.20
2023-03-26T14:36:20.063Z,1.30
2023-03-26T14:39:53.445Z,1.00
2023-03-26T14:43:14.873Z,0.90
2023-03-26T14:46:55.452Z,1.00
2023-03-26T14:50:36.259Z,0.90
2023-03-26T14:53:47.620Z,0.90
2023-03-26T14:57:13.046Z,1.10
2023-03-26T15:00:49.755Z,1.08
2023-03-26T15:04:11.463Z,1.10
2023-03-26T15:07:26.110Z,0.82
2023-03-26T15:10:57.076Z,1.20
2023-03-26T15:14:24.420Z,1.10
2023-03-26T15:18:09.360Z,1.08
2023-03-26T15:21:37.756Z,1.00
2023-03-26T15:25:20.888Z,1.00
2023-03-26T15:28:51.471Z,1.20
2023-03-26T15:32:03.566Z,1.10
2023-03-26T15:35:21.630Z,1.40
2023-03-26T15:38:46.861Z,1.30
2023-03-26T15:42:18.451Z,1.15
2023-03-26T15:45:48.354Z,1.27
2023-03-26T15:49:12.445Z,1.20
2023-03-26T15:52:40.570Z,1.40
2023-03-26T15:56:08.336Z,1.60
2023-03-26T15:59:12.239Z,1.27
2023-03-26T16:02:35.208Z,1.33
2023-03-26T16:06:07.806Z,1.23
2023-03-26T16:09:32.739Z,1.55
2023-03-26T16:13:15.311Z,1.60
2023-03-26T16:16:24.684Z,1.40
2023-03-26T16:19:49.822Z,1.63
2023-03-26T16:23:01.886Z,1.50
2023-03-26T16:26:06.510Z,1.60
2023-03-26T16:29:22.357Z,1.63
2023-03-26T16:32:31.548Z,1.80
2023-03-26T16:36:02.517Z,1.60
2023-03-26T16:42:31.409Z,1.52
2023-03-26T16:45:46.505Z,2.00
2023-03-26T16:49:03.891Z,2.97
2023-03-26T16:52:36.738Z,2.25
2023-03-26T16:55:47.561Z,2.40
2023-03-26T16:59:07.640Z,2.53
2023-03-26T17:02:21.759Z,2.30
2023-03-26T17:05:42.000Z,2.50
2023-03-26T17:08:57.029Z,2.55
2023-03-26T17:12:15.847Z,3.10
2023-03-26T17:15:34.593Z,2.78
2023-03-26T17:18:54.551Z,3.00
2023-03-26T17:22:14.816Z,2.97
2023-03-26T17:25:33.618Z,2.80
2023-03-26T17:28:56.447Z,2.67
2023-03-26T17:32:15.539Z,2.50
2023-03-26T17:35:38.040Z,2.63
2023-03-26T17:38:44.905Z,2.28
2023-03-26T17:42:21.862Z,2.60
2023-03-26T17:45:32.109Z,2.40
2023-03-26T17:48:39.019Z,2.40
2023-03-26T17:52:36.346Z,2.38
2023-03-26T17:55:44.326Z,2.60
2023-03-26T17:58:53.273Z,2.47
2023-03-26T18:02:03.750Z,2.70
2023-03-26T18:05:13.275Z,3.05
2023-03-26T18:08:55.566Z,2.95
2023-03-26T18:12:26.643Z,3.30
2023-03-26T18:15:48.653Z,3.08
2023-03-26T18:19:00.303Z,3.05
2023-03-26T18:22:07.516Z,3.20
2023-03-26T18:25:32.793Z,3.25
2023-03-26T18:28:42.604Z,4.10
2023-03-26T18:31:49.504Z,3.65
2023-03-26T18:35:01.896Z,4.60
2023-03-26T18:38:06.045Z,4.07
2023-03-26T18:41:22.427Z,3.63
2023-03-26T18:44:26.736Z,3.10
2023-03-26T18:47:31.312Z,2.97
2023-03-26T18:50:40.079Z,3.22
2023-03-26T18:53:50.948Z,4.72
2023-03-26T18:57:16.433Z,3.05
2023-03-26T19:00:28.152Z,3.38
2023-03-26T19:03:40.421Z,3.30
2023-03-26T19:06:45.065Z,3.17
2023-03-26T19:09:56.935Z,3.47
2023-03-26T19:13:04.724Z,3.25
2023-03-26T19:16:36.722Z,3.63
2023-03-26T19:19:43.284Z,3.17
2023-03-26T19:22:49.119Z,4.00
2023-03-26T19:25:58.901Z,3.33
2023-03-26T19:29:03.652Z,4.07
2023-03-26T19:32:49.001Z,3.67
2023-03-26T19:36:21.917Z,3.88
2023-03-26T19:39:37.556Z,4.97
2023-03-26T19:42:45.030Z,3.53
2023-03-26T19:46:00.112Z,4.25
2023-03-26T19:49:06.573Z,3.97
2023-03-26T19:52:22.779Z,4.20
2023-03-26T19:55:28.948Z,4.25
2023-03-26T19:58:33.486Z,4.05
2023-03-26T20:01:37.798Z,4.55
2023-03-26T20:04:42.926Z,3.80
2023-03-26T20:07:47.037Z,3.70
2023-03-26T20:10:57.722Z,3.70
2023-03-26T20:14:02.566Z,3.58
2023-03-26T20:17:22.571Z,3.90
2023-03-26T20:20:27.697Z,3.60
2023-03-26T20:23:31.211Z,4.13
2023-03-26T20:26:38.602Z,5.15
2023-03-26T20:29:43.214Z,4.88
2023-03-26T20:32:47.962Z,4.93
2023-03-26T20:35:55.941Z,5.10
2023-03-26T20:38:59.864Z,6.05
2023-03-26T20:42:03.046Z,5.18
2023-03-26T20:45:18.272Z,5.05
2023-03-26T20:48:22.189Z,5.70
2023-03-26T20:51:28.998Z,4.93
2023-03-26T20:54:32.098Z,5.53
2023-03-26T20:57:35.391Z,5.15
2023-03-26T21:00:39.688Z,5.25
2023-03-26T21:03:42.454Z,4.88
2023-03-26T21:06:45.625Z,5.57
2023-03-26T21:09:48.926Z,5.90
2023-03-26T21:13:00.851Z,7.10
2023-03-26T21:16:04.394Z,6.90
2023-03-26T21:19:09.251Z,7.93
2023-03-26T21:25:25.771Z,8.05
2023-03-26T21:28:41.909Z,8.32
2023-03-26T21:31:46.766Z,10.35
2023-03-26T21:34:58.657Z,8.43
2023-03-26T21:38:04.541Z,8.02
2023-03-26T21:41:07.816Z,5.78
2023-03-26T21:44:11.030Z,6.50
2023-03-26T21:47:14.137Z,5.70
2023-03-26T21:50:20.674Z,3.65
2023-03-26T21:53:24.707Z,3.50
2023-03-26T21:56:33.109Z,3.00
2023-03-26T21:59:53.995Z,2.97
2023-03-26T22:03:23.689Z,3.03
2023-03-26T22:06:37.241Z,2.78
2023-03-26T22:09:39.987Z,2.55
2023-03-26T22:12:42.517Z,2.17
2023-03-26T22:15:46.312Z,2.10
2023-03-26T22:18:49.109Z,2.00
2023-03-26T22:21:51.613Z,1.85
2023-03-26T22:24:54.451Z,1.90
2023-03-26T22:27:57.597Z,1.63
2023-03-26T22:31:07.313Z,1.60
2023-03-26T22:34:09.941Z,1.70
2023-03-26T22:37:13.624Z,1.77
2023-03-26T22:40:18.003Z,1.50
2023-03-26T22:43:20.586Z,1.60
2023-03-26T22:46:23.689Z,3.28
2023-03-26T22:49:27.522Z,1.63
2023-03-26T22:52:30.810Z,1.60
2023-03-26T22:55:33.631Z,1.50
2023-03-26T22:58:37.227Z,1.70
2023-03-26T23:01:40.263Z,1.83
2023-03-26T23:04:44.152Z,2.40
2023-03-26T23:07:47.397Z,2.42
2023-03-26T23:10:50.007Z,2.05
2023-03-26T23:13:52.751Z,2.35
2023-03-26T23:16:55.810Z,2.38
2023-03-26T23:19:58.641Z,2.05
2023-03-26T23:23:01.398Z,2.03
2023-03-26T23:26:04.765Z,2.35
2023-03-26T23:29:07.963Z,2.10
2023-03-26T23:32:23.361Z,2.08
2023-03-26T23:35:27.532Z,2.25
2023-03-26T23:38:43.372Z,2.30
2023-03-26T23:41:47.177Z,2.05
2023-03-26T23:44:49.759Z,2.30
2023-03-26T23:47:52.336Z,2.08
2023-03-26T23:51:04.016Z,1.92
2023-03-26T23:54:08.840Z,2.35
2023-03-26T23:57:11.901Z,1.95
